Time;durP1;ratioP1;P1;durP2;ratioP2;P2;SDS_P1;SDS_P2;PMS_P1;PMS_P2;Temp;Humidity;BMP_temperature;BMP_pressure;BME280_temperature;BME280_humidity;BME280_pressure;Samples;Min_cycle;Max_cycle;Signal;HPM_P1;HPM_P2
2022/11/24 00:00:32;;;;;;;11.75;3.00;;;;;;;5.58;100.00;95116.13;5123802;27;24461;-70
2022/11/24 00:02:59;;;;;;;10.82;2.55;;;;;;;5.66;100.00;95117.47;5112165;27;25035;-71
2022/11/24 00:05:25;;;;;;;11.35;3.20;;;;;;;5.65;100.00;95119.19;5115185;27;24466;-71
2022/11/24 00:07:52;;;;;;;19.08;3.33;;;;;;;5.59;100.00;95112.63;5118924;27;24456;-72
2022/11/24 00:10:20;;;;;;;15.38;3.20;;;;;;;5.59;100.00;95117.78;5121767;27;24433;-72
2022/11/24 00:12:46;;;;;;;15.85;2.70;;;;;;;5.63;100.00;95126.16;5121985;27;24791;-72
2022/11/24 00:15:13;;;;;;;11.30;2.83;;;;;;;5.62;100.00;95124.50;5119527;27;24433;-71
2022/11/24 00:17:39;;;;;;;14.35;3.40;;;;;;;5.50;100.00;95123.41;5126303;27;24429;-71
2022/11/24 00:20:07;;;;;;;11.10;3.08;;;;;;;5.44;100.00;95125.47;5112324;27;25010;-71
2022/11/24 00:22:33;;;;;;;11.90;2.75;;;;;;;5.36;100.00;95125.88;5124563;27;24441;-71
2022/11/24 00:25:00;;;;;;;10.88;2.80;;;;;;;5.33;100.00;95133.75;5120602;27;24995;-71
2022/11/24 00:27:28;;;;;;;14.63;2.90;;;;;;;5.27;100.00;95139.22;5117110;27;24440;-71
2022/11/24 00:29:54;;;;;;;10.60;2.47;;;;;;;5.25;100.00;95148.72;5112852;27;25010;-71
2022/11/24 00:32:21;;;;;;;8.63;2.80;;;;;;;5.27;100.00;95140.03;5110492;27;24445;-71
2022/11/24 00:34:47;;;;;;;10.27;3.22;;;;;;;5.33;100.00;95147.41;5123511;27;24803;-71
2022/11/24 00:37:14;;;;;;;12.18;2.50;;;;;;;5.33;100.00;95154.28;5114410;27;24433;-71
2022/11/24 00:39:40;;;;;;;13.82;2.70;;;;;;;5.30;100.00;95146.72;5115700;27;24808;-71
2022/11/24 00:42:07;;;;;;;8.65;2.28;;;;;;;5.27;100.00;95154.63;5113641;27;24445;-71
2022/11/24 00:44:34;;;;;;;7.25;2.50;;;;;;;5.23;100.00;95156.50;5118168;27;24764;-71
2022/11/24 00:47:01;;;;;;;7.65;2.85;;;;;;;5.15;100.00;95152.66;5122742;27;24437;-73
2022/11/24 00:49:27;;;;;;;9.43;2.92;;;;;;;5.18;100.00;95149.94;5114988;27;24981;-70
2022/11/24 00:51:54;;;;;;;14.18;2.95;;;;;;;5.19;100.00;95156.72;5118091;27;24437;-72
2022/11/24 00:54:21;;;;;;;6.72;2.10;;;;;;;5.18;100.00;95161.03;5116651;27;24456;-71
2022/11/24 00:56:47;;;;;;;5.35;1.90;;;;;;;5.19;100.00;95160.16;5116043;27;24436;-71
2022/11/24 00:59:14;;;;;;;8.77;1.98;;;;;;;5.15;100.00;95156.06;5122865;27;24969;-71
2022/11/24 01:01:42;;;;;;;6.57;2.60;;;;;;;5.19;100.00;95156.72;5120723;27;24502;-70
2022/11/24 01:04:08;;;;;;;7.35;2.22;;;;;;;5.17;100.00;95166.25;5104389;27;24438;-71
2022/11/24 01:06:36;;;;;;;7.57;3.22;;;;;;;5.13;100.00;95173.28;5128064;27;24435;-71
2022/11/24 01:09:03;;;;;;;7.72;2.83;;;;;;;5.12;100.00;95168.22;5117221;27;24994;-71
2022/11/24 01:12:00;;;;;;;7.60;2.65;;;;;;;5.13;100.00;95172.47;5117436;27;24437;-72
2022/11/24 01:14:20;;;;;;;7.50;2.45;;;;;;;5.10;100.00;95186.28;5120965;27;24425;-71
2022/11/24 01:16:48;;;;;;;8.75;2.55;;;;;;;5.12;100.00;95186.19;5122810;27;24426;-69
2022/11/24 01:19:15;;;;;;;8.00;2.40;;;;;;;5.08;100.00;95182.97;5120111;27;24440;-72
2022/11/24 01:21:41;;;;;;;7.85;2.70;;;;;;;5.17;100.00;95179.91;5120213;27;24478;-73
2022/11/24 01:24:09;;;;;;;7.55;2.35;;;;;;;5.12;100.00;95183.63;5121355;27;24440;-71
2022/11/24 01:26:36;;;;;;;21.00;2.60;;;;;;;5.10;100.00;95189.66;5126855;27;24795;-71
2022/11/24 01:29:02;;;;;;;8.00;2.43;;;;;;;5.06;100.00;95190.72;5120020;27;24521;-72
2022/11/24 01:31:29;;;;;;;12.70;2.73;;;;;;;5.02;100.00;95194.38;5122327;27;24433;-70
2022/11/24 01:33:56;;;;;;;9.70;2.07;;;;;;;4.99;100.00;95191.94;5115498;27;24433;-70
2022/11/24 01:36:23;;;;;;;10.10;2.28;;;;;;;4.96;100.00;95204.91;5122392;27;24434;-71
2022/11/24 01:38:50;;;;;;;10.57;2.30;;;;;;;4.95;100.00;95207.56;5122457;27;24798;-72
2022/11/24 01:41:18;;;;;;;9.98;3.50;;;;;;;4.94;100.00;95201.63;5109869;27;24461;-72
2022/11/24 01:43:46;;;;;;;9.52;3.92;;;;;;;4.97;100.00;95209.16;5104633;27;24441;-72
2022/11/24 01:46:19;;;;;;;12.23;5.40;;;;;;;4.96;100.00;95197.22;5119524;27;24437;-72
2022/11/24 01:48:51;;;;;;;11.07;4.50;;;;;;;4.98;100.00;95185.16;5114233;27;24444;-72
2022/11/24 01:51:23;;;;;;;12.35;5.72;;;;;;;4.99;100.00;95194.50;5106936;27;24441;-75
2022/11/24 01:53:56;;;;;;;13.07;5.07;;;;;;;5.06;100.00;95201.00;5098594;27;20854;-74
2022/11/24 01:56:23;;;;;;;12.63;4.90;;;;;;;5.13;100.00;95193.81;5114309;27;24446;-72
2022/11/24 01:58:53;;;;;;;12.57;5.95;;;;;;;5.10;100.00;95207.63;5114635;27;25044;-72
2022/11/24 02:01:20;;;;;;;12.02;4.47;;;;;;;5.11;100.00;95203.31;5109093;27;24819;-72
2022/11/24 02:03:48;;;;;;;18.20;5.28;;;;;;;5.14;100.00;95212.63;5105428;27;24440;-73
2022/11/24 02:06:22;;;;;;;13.82;4.47;;;;;;;5.20;100.00;95209.75;5106680;27;24491;-72
2022/11/24 02:08:52;;;;;;;12.80;3.72;;;;;;;5.16;100.00;95208.25;5120438;27;24827;-72
2022/11/24 02:11:21;;;;;;;7.47;2.47;;;;;;;5.19;100.00;95205.50;5109072;27;24442;-72
2022/11/24 02:13:48;;;;;;;9.35;3.00;;;;;;;5.20;100.00;95209.75;5102135;27;25046;-72
2022/11/24 02:16:15;;;;;;;9.73;2.63;;;;;;;5.16;100.00;95196.25;5120353;27;24815;-72
2022/11/24 02:18:42;;;;;;;11.57;2.53;;;;;;;5.14;100.00;95199.78;5108464;27;24440;-72
2022/11/24 02:21:11;;;;;;;8.82;2.22;;;;;;;5.24;100.00;95206.13;5110297;27;24469;-72
2022/11/24 02:23:49;;;;;;;8.02;2.30;;;;;;;5.28;100.00;95210.19;5125430;27;24467;-72
2022/11/24 02:26:28;;;;;;;10.75;2.20;;;;;;;5.20;100.00;95202.88;5106883;27;24433;-72
2022/11/24 02:28:55;;;;;;;7.97;2.17;;;;;;;5.16;100.00;95203.94;5115396;27;24436;-72
2022/11/24 02:31:21;;;;;;;7.03;1.95;;;;;;;5.13;100.00;95203.25;5111874;27;24430;-72
2022/11/24 02:33:49;;;;;;;10.00;3.33;;;;;;;5.13;100.00;95205.84;5118211;27;25027;-72
2022/11/24 02:36:16;;;;;;;5.47;2.10;;;;;;;5.13;100.00;95196.41;5102662;27;24453;-72
2022/11/24 02:38:43;;;;;;;8.93;2.27;;;;;;;5.20;100.00;95202.06;5105928;27;24998;-73
2022/11/24 02:41:16;;;;;;;6.05;1.75;;;;;;;5.08;100.00;95217.16;5115380;27;24464;-73
2022/11/24 02:43:47;;;;;;;14.90;2.40;;;;;;;5.12;100.00;95206.72;5119644;27;24433;-73
2022/11/24 02:46:14;;;;;;;9.27;2.60;;;;;;;5.06;100.00;95215.56;5102801;27;24445;-71
2022/11/24 02:48:40;;;;;;;8.70;2.17;;;;;;;5.03;100.00;95220.84;5115436;27;24433;-73
2022/11/24 02:51:07;;;;;;;8.63;2.30;;;;;;;5.03;100.00;95210.59;5108274;27;25066;-72
2022/11/24 02:53:34;;;;;;;6.55;1.90;;;;;;;5.14;100.00;95225.44;5120122;27;24436;-72
2022/11/24 02:56:00;;;;;;;10.73;2.25;;;;;;;5.12;100.00;95210.13;5108885;27;24448;-71
2022/11/24 02:58:27;;;;;;;13.07;2.38;;;;;;;5.13;100.00;95231.50;5116723;27;25096;-72
2022/11/24 03:00:56;;;;;;;7.68;2.00;;;;;;;5.19;100.00;95215.78;5111213;27;24464;-72
2022/11/24 03:03:23;;;;;;;8.55;2.38;;;;;;;5.20;100.00;95213.16;5107120;27;24438;-72
2022/11/24 03:05:49;;;;;;;8.75;2.00;;;;;;;5.20;100.00;95215.72;5105226;27;25020;-71
2022/11/24 03:08:16;;;;;;;6.22;1.80;;;;;;;5.17;100.00;95226.13;5117503;27;25008;-71
2022/11/24 03:10:43;;;;;;;7.90;1.88;;;;;;;5.12;100.00;95230.69;5109015;28;24449;-72
2022/11/24 03:13:09;;;;;;;10.85;2.03;;;;;;;5.12;100.00;95230.69;5113441;28;25001;-73
2022/11/24 03:15:36;;;;;;;14.07;2.00;;;;;;;5.06;100.00;95233.53;5109154;28;24434;-71
2022/11/24 03:18:04;;;;;;;7.07;1.90;;;;;;;5.04;100.00;95233.63;5114865;28;24433;-73
2022/11/24 03:20:30;;;;;;;6.68;1.95;;;;;;;5.16;100.00;95223.66;5108580;28;24464;-72
2022/11/24 03:22:57;;;;;;;7.97;1.88;;;;;;;5.12;100.00;95237.53;5111729;28;24430;-73
2022/11/24 03:25:24;;;;;;;5.45;1.60;;;;;;;5.13;100.00;95240.03;5110171;28;24449;-71
2022/11/24 03:27:50;;;;;;;9.50;1.85;;;;;;;5.14;100.00;95239.13;5111079;28;24445;-71
2022/11/24 03:30:17;;;;;;;8.02;1.92;;;;;;;5.18;100.00;95238.06;5119741;28;25038;-72
2022/11/24 03:32:44;;;;;;;5.40;1.63;;;;;;;5.21;100.00;95244.78;5115458;27;24447;-73
2022/11/24 03:35:12;;;;;;;7.47;2.10;;;;;;;5.18;100.00;95235.47;5109350;28;24997;-73
2022/11/24 03:37:38;;;;;;;6.20;1.83;;;;;;;5.57;100.00;95229.25;5119768;28;25055;-72
2022/11/24 03:40:06;;;;;;;6.43;1.75;;;;;;;5.46;100.00;95237.50;5117367;28;24429;-72
2022/11/24 03:42:32;;;;;;;6.38;1.77;;;;;;;5.37;100.00;95239.69;5121598;27;24441;-72
2022/11/24 03:44:59;;;;;;;6.90;1.88;;;;;;;5.63;100.00;95235.78;5115429;28;24441;-73
2022/11/24 03:47:25;;;;;;;6.80;2.03;;;;;;;5.62;100.00;95236.72;5115389;28;24436;-73
2022/11/24 03:49:52;;;;;;;9.88;1.92;;;;;;;5.57;100.00;95240.34;5118493;28;24428;-73
2022/11/24 03:52:19;;;;;;;8.20;2.15;;;;;;;5.95;100.00;95241.84;5116053;27;24449;-73
2022/11/24 03:54:46;;;;;;;7.75;1.92;;;;;;;5.98;100.00;95247.66;5107693;28;25029;-72
2022/11/24 03:57:13;;;;;;;9.00;2.17;;;;;;;5.89;100.00;95258.38;5114670;28;24444;-72
2022/11/24 03:59:40;;;;;;;7.22;2.00;;;;;;;5.82;100.00;95268.16;5120536;28;24436;-71
2022/11/24 04:02:07;;;;;;;8.00;2.08;;;;;;;5.74;100.00;95264.31;5096316;28;24599;-72
2022/11/24 04:04:34;;;;;;;9.68;2.53;;;;;;;5.75;100.00;95263.44;5096699;28;24449;-72
2022/11/24 04:07:01;;;;;;;9.02;2.30;;;;;;;5.73;100.00;95265.25;5100411;28;24449;-72
2022/11/24 04:09:29;;;;;;;8.37;2.33;;;;;;;5.71;100.00;95270.47;5093121;28;24430;-72
2022/11/24 04:14:39;;;;;;;5.07;2.13;;;;;;;5.74;100.00;95272.03;5111182;27;24428;-72
2022/11/24 04:17:06;;;;;;;10.13;2.97;;;;;;;6.24;100.00;95273.72;5114359;27;24440;-72
2022/11/24 04:19:32;;;;;;;8.70;2.17;;;;;;;6.21;100.00;95269.56;5116434;27;24882;-72
2022/11/24 04:21:59;;;;;;;22.20;2.47;;;;;;;6.28;100.00;95264.94;5115520;27;24473;-72
2022/11/24 04:24:25;;;;;;;9.93;2.17;;;;;;;6.01;100.00;95290.38;5114879;27;24432;-72
2022/11/24 04:26:53;;;;;;;9.40;2.23;;;;;;;6.36;100.00;95283.34;5116851;27;24468;-72
2022/11/24 04:29:19;;;;;;;7.72;2.58;;;;;;;6.10;100.00;95289.06;5106672;28;25051;-72
2022/11/24 04:31:46;;;;;;;8.60;2.50;;;;;;;6.07;100.00;95292.59;5109087;28;24438;-72
2022/11/24 04:34:12;;;;;;;10.77;2.53;;;;;;;6.04;100.00;95291.03;5103115;27;24927;-72
2022/11/24 04:36:39;;;;;;;8.77;2.47;;;;;;;5.92;100.00;95299.38;5125099;27;24437;-72
2022/11/24 04:39:06;;;;;;;9.50;2.42;;;;;;;5.94;100.00;95291.59;5120295;27;24536;-72
2022/11/24 04:41:33;;;;;;;9.25;2.35;;;;;;;6.10;100.00;95289.06;5125888;27;24464;-72
2022/11/24 04:44:00;;;;;;;9.95;2.78;;;;;;;5.94;100.00;95296.75;5113144;27;24525;-72
2022/11/24 04:46:27;;;;;;;9.35;2.15;;;;;;;6.07;100.00;95300.31;5111498;27;24437;-73
2022/11/24 04:48:53;;;;;;;11.88;2.33;;;;;;;5.92;100.00;95296.81;5107889;27;24980;-72
2022/11/24 04:51:20;;;;;;;6.32;2.10;;;;;;;5.98;100.00;95298.25;5110316;27;24426;-72
2022/11/24 04:53:48;;;;;;;8.65;2.10;;;;;;;6.07;100.00;95297.75;5120287;27;24429;-72
2022/11/24 04:56:14;;;;;;;9.63;2.13;;;;;;;5.97;100.00;95294.00;5122247;27;24541;-72
2022/11/24 04:58:41;;;;;;;8.65;2.33;;;;;;;6.12;100.00;95297.50;5124482;27;24456;-72
2022/11/24 05:01:09;;;;;;;10.65;2.67;;;;;;;6.48;100.00;95302.41;5123155;27;24460;-72
2022/11/24 05:03:36;;;;;;;9.40;2.67;;;;;;;6.23;100.00;95308.03;5105644;27;24923;-72
2022/11/24 05:06:02;;;;;;;11.00;2.78;;;;;;;6.39;100.00;95302.94;5115572;27;24427;-72
2022/11/24 05:08:29;;;;;;;9.60;2.65;;;;;;;6.39;100.00;95303.75;5120047;27;24444;-72
2022/11/24 05:10:55;;;;;;;10.13;2.40;;;;;;;6.55;100.00;95306.31;5108173;28;24500;-73
2022/11/24 05:13:22;;;;;;;6.97;2.03;;;;;;;6.63;100.00;95311.06;5107887;27;25256;-72
2022/11/24 05:15:48;;;;;;;22.95;3.17;;;;;;;6.55;100.00;95312.28;5107314;28;24436;-72
2022/11/24 05:18:16;;;;;;;11.15;2.47;;;;;;;6.40;100.00;95309.72;5119172;27;24429;-72
2022/11/24 05:20:44;;;;;;;8.65;2.67;;;;;;;6.26;100.00;95319.00;5113950;27;24461;-71
2022/11/24 05:23:11;;;;;;;7.90;2.27;;;;;;;6.20;100.00;95318.53;5118609;27;24837;-72
2022/11/24 05:25:37;;;;;;;10.38;2.70;;;;;;;6.19;100.00;95319.41;5113665;27;24433;-72
2022/11/24 05:28:07;;;;;;;9.27;2.42;;;;;;;6.34;100.00;95313.47;5096516;27;24995;-72
2022/11/24 05:30:34;;;;;;;8.93;2.47;;;;;;;6.15;100.00;95320.47;5092679;28;24442;-72
2022/11/24 05:33:04;;;;;;;7.65;2.50;;;;;;;6.02;100.00;95320.31;5103975;28;24440;-72
2022/11/24 05:35:33;;;;;;;7.83;2.27;;;;;;;6.13;100.00;95318.00;5108876;27;24425;-72
2022/11/24 05:37:59;;;;;;;7.47;2.50;;;;;;;5.95;100.00;95322.34;5113155;27;24440;-72
2022/11/24 05:40:26;;;;;;;9.00;2.22;;;;;;;5.92;100.00;95325.09;5114202;27;24429;-72
2022/11/24 05:42:52;;;;;;;6.13;2.03;;;;;;;5.80;100.00;95325.69;5114626;27;24975;-72
2022/11/24 05:45:21;;;;;;;10.30;2.33;;;;;;;5.90;100.00;95326.06;5123877;27;24432;-72
2022/11/24 05:47:49;;;;;;;7.73;2.23;;;;;;;5.86;100.00;95330.53;5100203;27;24430;-72
2022/11/24 05:50:18;;;;;;;9.35;2.40;;;;;;;5.82;100.00;95331.56;5109824;28;24421;-72
2022/11/24 05:52:45;;;;;;;7.05;2.40;;;;;;;5.82;100.00;95327.28;5105288;28;24433;-72
2022/11/24 05:55:13;;;;;;;7.78;2.13;;;;;;;5.82;100.00;95337.56;5113514;27;24430;-71
2022/11/24 05:57:40;;;;;;;8.57;2.38;;;;;;;5.79;100.00;95332.56;5115006;27;24477;-72
2022/11/24 06:00:08;;;;;;;10.27;2.35;;;;;;;5.77;100.00;95318.94;5110314;27;24761;-72
2022/11/24 06:02:35;;;;;;;8.68;2.58;;;;;;;5.76;100.00;95317.31;5104374;28;24452;-72
2022/11/24 06:05:01;;;;;;;8.23;2.28;;;;;;;5.72;100.00;95320.13;5097743;28;24839;-71
2022/11/24 06:07:28;;;;;;;12.90;2.38;;;;;;;5.75;100.00;95317.41;5096401;28;24425;-72
2022/11/24 06:09:56;;;;;;;10.55;2.65;;;;;;;5.69;100.00;95315.94;5097307;27;24426;-72
2022/11/24 06:12:22;;;;;;;9.13;2.17;;;;;;;5.65;100.00;95321.34;5102586;27;24433;-72
2022/11/24 06:14:49;;;;;;;8.43;2.40;;;;;;;5.57;100.00;95324.28;5099230;27;24884;-72
2022/11/24 06:17:15;;;;;;;6.57;2.10;;;;;;;5.55;100.00;95326.91;5102152;27;25006;-72
2022/11/24 06:19:45;;;;;;;7.93;2.60;;;;;;;5.49;100.00;95332.38;5101120;27;24430;-72
2022/11/24 06:22:11;;;;;;;5.45;2.00;;;;;;;5.47;100.00;95341.06;5108270;27;24465;-72
2022/11/24 06:24:38;;;;;;;9.45;2.45;;;;;;;5.45;100.00;95340.28;5124924;27;24429;-73
2022/11/24 06:27:06;;;;;;;11.93;2.72;;;;;;;5.43;100.00;95331.84;5121807;27;24429;-74
2022/11/24 06:29:33;;;;;;;10.03;2.67;;;;;;;5.39;100.00;95338.88;5121877;27;25217;-72
2022/11/24 06:31:59;;;;;;;7.97;2.40;;;;;;;5.45;100.00;95345.44;5096133;27;25026;-72
2022/11/24 06:34:26;;;;;;;8.63;2.57;;;;;;;5.43;100.00;95350.66;5113241;27;24432;-72
2022/11/24 06:36:52;;;;;;;11.40;2.93;;;;;;;5.39;100.00;95358.59;5118477;27;25154;-73
2022/11/24 06:39:19;;;;;;;9.90;3.10;;;;;;;5.34;100.00;95364.78;5120702;27;24434;-72
2022/11/24 06:41:45;;;;;;;6.83;3.10;;;;;;;5.30;100.00;95370.97;5118401;27;24823;-73
2022/11/24 06:44:13;;;;;;;7.80;3.33;;;;;;;5.29;100.00;95376.16;5116232;27;24425;-72
2022/11/24 06:46:39;;;;;;;6.30;3.33;;;;;;;5.27;100.00;95385.69;5109469;27;24433;-72
2022/11/24 06:49:06;;;;;;;9.43;4.13;;;;;;;5.24;100.00;95380.69;5114694;27;24429;-73
2022/11/24 06:51:33;;;;;;;7.97;3.45;;;;;;;5.24;100.00;95384.09;5121319;27;24430;-72
2022/11/24 06:53:59;;;;;;;8.23;3.38;;;;;;;5.26;100.00;95391.72;5110435;27;24430;-72
2022/11/24 06:56:26;;;;;;;15.13;3.28;;;;;;;5.21;100.00;95396.25;5117936;27;24510;-72
2022/11/24 06:58:53;;;;;;;9.32;3.17;;;;;;;5.23;100.00;95407.28;5104053;28;24425;-72
2022/11/24 07:01:23;;;;;;;9.38;2.95;;;;;;;5.18;100.00;95407.47;5124058;27;24465;-72
2022/11/24 07:03:50;;;;;;;10.40;3.00;;;;;;;5.14;100.00;95411.09;5115011;27;20764;-72
2022/11/24 07:06:18;;;;;;;9.77;3.30;;;;;;;5.10;100.00;95420.69;5119901;27;24991;-73
2022/11/24 07:08:45;;;;;;;10.32;3.17;;;;;;;5.04;100.00;95423.56;5108790;28;24441;-72
2022/11/24 07:11:14;;;;;;;10.98;3.70;;;;;;;5.02;100.00;95427.91;5112682;27;24434;-72
2022/11/24 07:13:41;;;;;;;8.57;3.35;;;;;;;5.04;100.00;95426.13;5094627;28;24958;-72
2022/11/24 07:16:13;;;;;;;12.63;3.70;;;;;;;5.03;100.00;95431.31;5110911;28;24993;-71
2022/11/24 07:18:41;;;;;;;9.27;3.22;;;;;;;5.01;100.00;95439.09;5121317;27;24431;-72
2022/11/24 07:21:07;;;;;;;7.97;2.20;;;;;;;5.05;100.00;95447.47;5110296;28;24430;-72
2022/11/24 07:23:34;;;;;;;6.15;2.28;;;;;;;5.01;100.00;95458.78;5114383;28;24452;-72
2022/11/24 07:26:02;;;;;;;6.80;2.20;;;;;;;5.03;100.00;95462.09;5111832;28;24479;-72
2022/11/24 07:28:28;;;;;;;7.72;2.20;;;;;;;5.03;100.00;95462.94;5126314;28;24436;-72
2022/11/24 07:30:55;;;;;;;8.48;2.55;;;;;;;5.02;100.00;95473.28;5109461;28;24437;-72
2022/11/24 07:33:24;;;;;;;6.13;2.70;;;;;;;5.04;100.00;95474.03;5126070;28;24783;-73
2022/11/24 07:35:51;;;;;;;5.10;2.40;;;;;;;4.97;100.00;95485.47;5109134;28;24487;-71
2022/11/24 07:38:18;;;;;;;2.67;1.45;;;;;;;4.96;100.00;95492.34;5125645;28;24440;-72
2022/11/24 07:40:45;;;;;;;3.83;1.50;;;;;;;4.96;100.00;95500.03;5114594;28;24438;-72
2022/11/24 07:43:11;;;;;;;2.15;0.73;;;;;;;4.98;100.00;95505.97;5107589;28;24445;-72
2022/11/24 07:45:38;;;;;;;2.25;0.93;;;;;;;5.05;100.00;95514.22;5122168;28;24425;-72
2022/11/24 07:48:04;;;;;;;4.77;1.00;;;;;;;4.94;100.00;95508.75;5126519;27;24429;-72
2022/11/24 07:50:32;;;;;;;1.15;0.50;;;;;;;4.94;100.00;95491.59;5110675;27;24978;-73
2022/11/24 07:53:02;;;;;;;1.08;0.30;;;;;;;4.87;100.00;95489.38;5117698;27;24429;-73
2022/11/24 07:55:28;;;;;;;0.90;0.47;;;;;;;4.87;100.00;95471.41;5127055;27;25240;-72
2022/11/24 07:57:59;;;;;;;0.88;0.47;;;;;;;4.85;100.00;95474.03;5119868;27;24425;-73
2022/11/24 08:00:26;;;;;;;0.68;0.35;;;;;;;4.80;100.00;95471.69;5121458;27;25011;-72
2022/11/24 08:02:53;;;;;;;0.88;0.40;;;;;;;4.82;100.00;95472.47;5114051;27;24501;-73
2022/11/24 08:05:19;;;;;;;0.93;0.65;;;;;;;4.75;100.00;95478.75;5112848;27;24430;-72
2022/11/24 08:07:46;;;;;;;1.45;0.50;;;;;;;4.76;100.00;95477.03;5125915;27;24435;-73
2022/11/24 08:10:14;;;;;;;1.00;0.70;;;;;;;4.76;100.00;95492.41;5112814;27;24985;-73
2022/11/24 08:12:41;;;;;;;1.52;1.13;;;;;;;4.74;100.00;95492.47;5119219;27;24986;-73
2022/11/24 08:15:08;;;;;;;2.15;1.30;;;;;;;4.70;100.00;95505.50;5124697;27;24814;-72
2022/11/24 08:17:35;;;;;;;1.90;0.80;;;;;;;4.77;100.00;95509.47;5110068;27;24481;-73
2022/11/24 08:20:02;;;;;;;1.77;1.00;;;;;;;4.69;100.00;95512.38;5116413;27;24517;-72
2022/11/24 08:22:28;;;;;;;3.85;0.80;;;;;;;4.60;100.00;95512.78;5112273;28;24450;-73
2022/11/24 08:24:55;;;;;;;1.83;0.65;;;;;;;4.60;100.00;95494.84;5116486;27;24430;-73
2022/11/24 08:27:23;;;;;;;2.63;0.70;;;;;;;4.65;100.00;95503.16;5106794;27;24432;-73
2022/11/24 08:29:49;;;;;;;1.45;0.93;;;;;;;4.67;100.00;95496.22;5119421;27;24430;-73
2022/11/24 08:32:16;;;;;;;1.80;0.80;;;;;;;4.63;100.00;95499.81;5104463;27;24432;-72
2022/11/24 08:34:42;;;;;;;2.20;0.90;;;;;;;4.66;100.00;95503.97;5122524;27;24437;-73
2022/11/24 08:37:09;;;;;;;0.93;0.70;;;;;;;4.77;100.00;95507.72;5120402;27;24437;-73
2022/11/24 08:39:35;;;;;;;1.53;0.73;;;;;;;4.91;100.00;95506.31;5112618;27;24982;-73
2022/11/24 08:42:02;;;;;;;1.33;1.10;;;;;;;5.03;100.00;95501.44;5128617;27;24456;-73
2022/11/24 08:44:29;;;;;;;1.97;1.30;;;;;;;5.14;100.00;95516.34;5120892;27;25091;-73
2022/11/24 08:46:56;;;;;;;2.70;1.00;;;;;;;5.32;100.00;95507.81;5127064;27;24425;-73
2022/11/24 08:49:23;;;;;;;4.70;0.90;;;;;;;5.33;100.00;95517.16;5121471;27;24425;-73
2022/11/24 08:51:50;;;;;;;1.38;0.60;;;;;;;5.25;100.00;95518.44;5106615;27;24998;-73
2022/11/24 08:54:18;;;;;;;1.35;0.65;;;;;;;5.43;100.00;95527.03;5126045;27;24487;-73
2022/11/24 08:56:45;;;;;;;1.30;0.50;;;;;;;5.51;100.00;95523.19;5114039;27;24538;-71
2022/11/24 08:59:12;;;;;;;2.73;1.10;;;;;;;5.53;100.00;95525.72;5127651;27;25007;-73
2022/11/24 09:01:40;;;;;;;1.40;0.80;;;;;;;5.57;100.00;95535.75;5119826;27;24467;-72
2022/11/24 09:04:07;;;;;;;0.82;0.35;;;;;;;5.54;100.00;95541.03;5127774;27;24433;-72
2022/11/24 09:06:33;;;;;;;0.43;0.40;;;;;;;5.61;100.00;95543.31;5120620;27;24437;-73
2022/11/24 09:09:00;;;;;;;1.80;0.60;;;;;;;5.61;100.00;95540.75;5126688;27;24425;-73
2022/11/24 09:11:27;;;;;;;0.80;0.45;;;;;;;5.73;100.00;95540.16;5120695;27;24437;-73
2022/11/24 09:13:55;;;;;;;0.35;0.25;;;;;;;5.68;100.00;95547.28;5126320;27;24433;-73
2022/11/24 09:16:24;;;;;;;0.57;0.20;;;;;;;5.58;100.00;95547.69;5108655;27;24437;-73
2022/11/24 09:18:56;;;;;;;0.68;0.28;;;;;;;5.48;100.00;95548.19;5119298;27;20755;-73
2022/11/24 09:21:23;;;;;;;1.17;0.40;;;;;;;5.67;100.00;95550.72;5121030;27;24997;-73
2022/11/24 09:23:51;;;;;;;0.60;0.30;;;;;;;5.83;100.00;95539.66;5123195;27;25041;-73
2022/11/24 09:26:20;;;;;;;1.15;0.60;;;;;;;5.76;100.00;95538.28;5121620;27;24795;-72
2022/11/24 09:28:47;;;;;;;0.77;0.45;;;;;;;5.83;100.00;95549.13;5121689;27;24791;-72
2022/11/24 09:31:16;;;;;;;0.80;0.50;;;;;;;5.87;100.00;95550.63;5108855;27;24441;-73
2022/11/24 09:33:43;;;;;;;0.80;0.30;;;;;;;6.10;100.00;95553.88;5116675;27;24421;-73
2022/11/24 09:36:11;;;;;;;0.85;0.57;;;;;;;6.28;100.00;95561.50;5110087;27;24434;-73
2022/11/24 09:38:38;;;;;;;2.60;1.13;;;;;;;6.06;100.00;95559.16;5119974;27;24435;-72
2022/11/24 09:41:39;;;;;;;2.22;0.80;;;;;;;5.96;100.00;95570.78;5109962;27;24436;-73
2022/11/24 09:44:30;;;;;;;0.63;0.50;;;;;;;5.79;100.00;95573.31;5090011;27;24457;-73
2022/11/24 09:47:03;;;;;;;1.35;0.50;;;;;;;5.72;100.00;95571.91;5113979;27;24438;-73
2022/11/24 09:49:37;;;;;;;0.97;0.60;;;;;;;5.67;100.00;95568.72;5113279;27;24482;-73
2022/11/24 09:52:11;;;;;;;1.33;0.50;;;;;;;5.85;100.00;95578.13;5107516;27;24433;-72
2022/11/24 09:54:45;;;;;;;0.50;0.40;;;;;;;5.85;100.00;95588.41;5110505;27;24432;-72
2022/11/24 09:57:14;;;;;;;1.48;0.60;;;;;;;5.87;100.00;95599.47;5108896;28;24429;-72
2022/11/24 09:59:41;;;;;;;1.30;0.40;;;;;;;5.89;100.00;95597.63;5120194;27;24440;-72
2022/11/24 10:02:12;;;;;;;0.60;0.50;;;;;;;5.96;100.00;95593.91;5126919;27;24460;-72
2022/11/24 10:04:42;;;;;;;1.38;0.52;;;;;;;5.88;100.00;95595.97;5119208;27;24425;-73
2022/11/24 10:07:22;;;;;;;0.82;0.55;;;;;;;5.92;100.00;95594.97;5125118;27;24432;-73
2022/11/24 10:10:00;;;;;;;2.78;0.95;;;;;;;6.01;100.00;95594.53;5114779;27;24804;-73
2022/11/24 10:12:40;;;;;;;1.70;0.80;;;;;;;6.04;100.00;95594.41;5118402;27;24432;-73
2022/11/24 10:15:36;;;;;;;1.23;0.50;;;;;;;6.25;100.00;95595.09;5109231;27;24437;-73
2022/11/24 10:18:23;;;;;;;1.50;0.57;;;;;;;6.58;100.00;95591.78;5118149;27;24430;-73
2022/11/24 10:20:59;;;;;;;1.42;0.90;;;;;;;6.85;100.00;95581.81;5105255;27;24444;-72
2022/11/24 10:23:45;;;;;;;4.35;2.55;;;;;;;6.88;100.00;95584.25;5113711;27;24453;-72
2022/11/24 10:26:18;;;;;;;2.08;1.20;;;;;;;7.20;100.00;95587.72;5112137;27;24437;-73
2022/11/24 10:28:51;;;;;;;1.30;0.70;;;;;;;7.55;100.00;95584.19;5115933;27;24425;-73
2022/11/24 10:31:23;;;;;;;1.50;0.70;;;;;;;7.63;100.00;95587.19;5112354;27;20777;-73
2022/11/24 10:33:50;;;;;;;1.52;0.57;;;;;;;7.47;100.00;95590.59;5122424;27;20779;-73
2022/11/24 10:36:23;;;;;;;0.85;0.60;;;;;;;7.30;100.00;95597.53;5106216;27;21327;-73
2022/11/24 10:38:56;;;;;;;2.33;0.80;;;;;;;7.22;100.00;95600.53;5110385;27;21347;-73
2022/11/24 10:41:28;;;;;;;2.17;0.70;;;;;;;7.10;100.00;95601.16;5120196;27;20727;-73
2022/11/24 10:43:58;;;;;;;4.28;1.52;;;;;;;7.31;100.00;95596.66;5121721;27;25035;-73
2022/11/24 10:46:27;;;;;;;2.38;1.15;;;;;;;7.37;100.00;95596.31;5113459;27;21071;-73
2022/11/24 10:48:58;;;;;;;3.15;1.05;;;;;;;7.33;100.00;95605.94;5109960;27;24440;-73
2022/11/24 10:51:46;;;;;;;3.60;1.65;;;;;;;7.24;100.00;95594.38;5120323;27;24448;-73
2022/11/24 10:54:17;;;;;;;3.85;1.30;;;;;;;7.20;100.00;95597.22;5116731;27;20723;-73
2022/11/24 10:56:45;;;;;;;8.95;2.20;;;;;;;7.26;100.00;95597.69;5110863;27;20776;-73
2022/11/24 10:59:30;;;;;;;5.00;2.43;;;;;;;7.49;100.00;95586.19;5107819;27;24514;-73
2022/11/24 11:01:58;;;;;;;4.70;1.30;;;;;;;7.70;100.00;95579.03;5116145;27;24447;-73
2022/11/24 11:04:27;;;;;;;2.28;1.00;;;;;;;7.87;100.00;95580.69;5118835;27;24437;-73
2022/11/24 11:07:08;;;;;;;3.50;1.13;;;;;;;7.70;100.00;95579.03;5113493;27;20838;-73
2022/11/24 11:09:36;;;;;;;5.88;2.00;;;;;;;7.46;100.00;95588.94;5109436;27;20726;-73
2022/11/24 11:12:10;;;;;;;10.90;3.25;;;;;;;7.37;100.00;95597.13;5121459;28;24444;-73
2022/11/24 11:14:37;;;;;;;5.88;2.08;;;;;;;7.31;100.00;95596.66;5112648;28;20679;-73
2022/11/24 11:17:34;;;;;;;6.75;2.20;;;;;;;7.34;100.00;95597.31;5105843;28;20770;-73
2022/11/24 11:20:06;;;;;;;12.85;4.82;;;;;;;7.43;100.00;95590.84;5119001;28;20645;-73
2022/11/24 11:22:37;;;;;;;7.50;1.95;;;;;;;7.52;100.00;95588.59;5113282;27;20671;-73
2022/11/24 11:25:17;;;;;;;4.60;1.75;;;;;;;7.62;100.00;95594.09;5126123;27;20759;-73
2022/11/24 11:27:43;;;;;;;8.10;2.03;;;;;;;7.67;100.00;95592.09;5120202;27;20652;-73
2022/11/24 11:30:25;;;;;;;8.98;3.30;;;;;;;7.55;100.00;95597.06;5113887;27;24441;-73
2022/11/24 11:32:54;;;;;;;9.10;2.08;;;;;;;7.50;100.00;95605.06;5122909;27;20648;-73
2022/11/24 11:35:23;;;;;;;6.20;1.70;;;;;;;7.47;100.00;95615.53;5112674;27;20715;-73
2022/11/24 11:37:51;;;;;;;5.28;1.63;;;;;;;7.54;100.00;95609.13;5125570;27;20772;-73
2022/11/24 11:40:24;;;;;;;6.05;2.78;;;;;;;7.52;100.00;95614.34;5123743;27;20899;-73